MTCH

Cap Haitien International Airport

Cap Haitien, Haiti
TAF MTCH 212321Z 2200/2224 36006KT 9000 SCT025 BKN050 BECMG 2204/2208 VRB02KT FM221400 05012KT 9000 FEW018
Issued Valid From Valid To
Jan-21 @ 23:21 UTC
(an hour ago)
Jan-22 @ 00:00 UTC
(24 minutes ago)
Jan-23 @ 00:00 UTC
(in 24 hours)
Jan-22 @ 00:00 to Jan-22 @ 04:00
TAF MTCH 212321Z 2200/2224 36006KT 9000 SCT025 BKN050
Wind Visibility Clouds
360° at 6 knots 8,996 meters
  • Scattered at 2,500' AGL
  • Broken at 5,000' AGL
Becoming Jan-22 @ 04:00 to Jan-22 @ 14:00
BECMG 2204/2208 VRB02KT
Wind Visibility Clouds
Variable at 2 knots 8,996 meters
  • Scattered at 2,500' AGL
  • Broken at 5,000' AGL
From Jan-22 @ 14:00 to Jan-23 @ 00:00
FM221400 05012KT 9000 FEW018
Wind Visibility Clouds
50° at 12 knots 8,996 meters
  • Few at 1,800' AGL
TAF MTCH 212321Z 2200/2224 36006KT 9000 SCT025 BKN050 BECMG 2204/2208 VRB02KT FM221400 05012KT 9000 FEW018
Issued Jan-21 @ 23:21 UTC
(an hour ago)
Valid From Jan-22 @ 00:00 UTC
(24 minutes ago)
Valid To Jan-23 @ 00:00 UTC
(in 24 hours)
Jan-22 @ 00:00 - Jan-22 @ 04:00
Wind Visibility
360° at 6 knots 8,996 meters
Clouds
  • Scattered at 2,500' AGL
  • Broken at 5,000' AGL
Becoming Jan-22 @ 04:00 - Jan-22 @ 14:00
Wind Visibility
Variable at 2 knots 8,996 meters
Clouds
  • Scattered at 2,500' AGL
  • Broken at 5,000' AGL
From Jan-22 @ 14:00 - Jan-23 @ 00:00
Wind Visibility
50° at 12 knots 8,996 meters
Clouds
  • Few at 1,800' AGL